sensor_id;sensor_type;location;lat;lon;timestamp;P1;durP1;ratioP1;P2;durP2;ratioP2
16634;SDS011;8431;52.458;9.998;2023-10-31T00:00:55;19.10;;;17.67;;
16634;SDS011;8431;52.458;9.998;2023-10-31T00:03:33;19.90;;;18.35;;
16634;SDS011;8431;52.458;9.998;2023-10-31T00:06:03;18.98;;;17.52;;
16634;SDS011;8431;52.458;9.998;2023-10-31T00:08:30;18.85;;;17.55;;
16634;SDS011;8431;52.458;9.998;2023-10-31T00:11:13;19.02;;;17.38;;
16634;SDS011;8431;52.458;9.998;2023-10-31T00:13:42;18.27;;;17.27;;
16634;SDS011;8431;52.458;9.998;2023-10-31T00:16:10;19.25;;;17.92;;
16634;SDS011;8431;52.458;9.998;2023-10-31T00:18:38;18.38;;;17.05;;
16634;SDS011;8431;52.458;9.998;2023-10-31T00:21:05;19.23;;;17.95;;
16634;SDS011;8431;52.458;9.998;2023-10-31T00:23:42;18.80;;;17.65;;
16634;SDS011;8431;52.458;9.998;2023-10-31T00:26:15;18.92;;;17.67;;
16634;SDS011;8431;52.458;9.998;2023-10-31T00:28:42;20.52;;;18.52;;
16634;SDS011;8431;52.458;9.998;2023-10-31T00:31:10;19.52;;;18.00;;
16634;SDS011;8431;52.458;9.998;2023-10-31T00:33:40;19.38;;;18.08;;
16634;SDS011;8431;52.458;9.998;2023-10-31T00:36:08;19.50;;;18.08;;
16634;SDS011;8431;52.458;9.998;2023-10-31T00:38:38;19.98;;;18.55;;
16634;SDS011;8431;52.458;9.998;2023-10-31T00:41:05;19.13;;;17.85;;
16634;SDS011;8431;52.458;9.998;2023-10-31T00:43:35;19.35;;;17.95;;
16634;SDS011;8431;52.458;9.998;2023-10-31T00:46:03;18.98;;;17.77;;
16634;SDS011;8431;52.458;9.998;2023-10-31T00:48:30;18.58;;;17.45;;
16634;SDS011;8431;52.458;9.998;2023-10-31T00:51:12;19.08;;;17.63;;
16634;SDS011;8431;52.458;9.998;2023-10-31T00:53:55;18.83;;;17.63;;
16634;SDS011;8431;52.458;9.998;2023-10-31T00:56:22;19.45;;;18.17;;
16634;SDS011;8431;52.458;9.998;2023-10-31T00:58:55;18.35;;;17.23;;
16634;SDS011;8431;52.458;9.998;2023-10-31T01:01:42;19.20;;;17.75;;
16634;SDS011;8431;52.458;9.998;2023-10-31T01:04:09;17.75;;;16.65;;
16634;SDS011;8431;52.458;9.998;2023-10-31T01:06:40;18.92;;;17.35;;
16634;SDS011;8431;52.458;9.998;2023-10-31T01:09:10;18.23;;;16.85;;
16634;SDS011;8431;52.458;9.998;2023-10-31T01:11:38;17.38;;;16.33;;
16634;SDS011;8431;52.458;9.998;2023-10-31T01:14:07;17.45;;;16.20;;
16634;SDS011;8431;52.458;9.998;2023-10-31T01:16:34;17.83;;;16.83;;
16634;SDS011;8431;52.458;9.998;2023-10-31T01:19:03;17.65;;;16.40;;
16634;SDS011;8431;52.458;9.998;2023-10-31T01:21:36;17.58;;;16.63;;
16634;SDS011;8431;52.458;9.998;2023-10-31T01:24:04;17.25;;;16.27;;
16634;SDS011;8431;52.458;9.998;2023-10-31T01:26:32;17.58;;;16.50;;
16634;SDS011;8431;52.458;9.998;2023-10-31T01:29:00;17.15;;;16.17;;
16634;SDS011;8431;52.458;9.998;2023-10-31T01:31:27;17.05;;;15.85;;
16634;SDS011;8431;52.458;9.998;2023-10-31T01:33:57;17.75;;;16.58;;
16634;SDS011;8431;52.458;9.998;2023-10-31T01:36:25;17.05;;;15.88;;
16634;SDS011;8431;52.458;9.998;2023-10-31T01:38:52;16.92;;;15.88;;
16634;SDS011;8431;52.458;9.998;2023-10-31T01:41:21;17.33;;;16.05;;
16634;SDS011;8431;52.458;9.998;2023-10-31T01:43:47;16.25;;;15.45;;
16634;SDS011;8431;52.458;9.998;2023-10-31T01:46:25;17.38;;;16.42;;
16634;SDS011;8431;52.458;9.998;2023-10-31T01:48:51;16.98;;;16.08;;
16634;SDS011;8431;52.458;9.998;2023-10-31T01:51:19;16.90;;;15.68;;
16634;SDS011;8431;52.458;9.998;2023-10-31T01:53:46;17.75;;;16.65;;
16634;SDS011;8431;52.458;9.998;2023-10-31T01:56:14;18.10;;;16.80;;
16634;SDS011;8431;52.458;9.998;2023-10-31T01:58:42;16.50;;;15.40;;
16634;SDS011;8431;52.458;9.998;2023-10-31T02:01:10;17.17;;;16.27;;
16634;SDS011;8431;52.458;9.998;2023-10-31T02:03:43;16.92;;;15.93;;
16634;SDS011;8431;52.458;9.998;2023-10-31T02:06:10;16.80;;;15.80;;
16634;SDS011;8431;52.458;9.998;2023-10-31T02:08:37;17.13;;;16.13;;
16634;SDS011;8431;52.458;9.998;2023-10-31T02:11:04;16.88;;;16.00;;
16634;SDS011;8431;52.458;9.998;2023-10-31T02:13:35;16.00;;;15.20;;
16634;SDS011;8431;52.458;9.998;2023-10-31T02:16:04;16.77;;;15.88;;
16634;SDS011;8431;52.458;9.998;2023-10-31T02:18:34;17.85;;;16.63;;
16634;SDS011;8431;52.458;9.998;2023-10-31T02:21:01;17.35;;;16.10;;
16634;SDS011;8431;52.458;9.998;2023-10-31T02:23:30;16.98;;;15.98;;
16634;SDS011;8431;52.458;9.998;2023-10-31T02:25:57;16.90;;;15.90;;
16634;SDS011;8431;52.458;9.998;2023-10-31T02:28:23;16.35;;;15.18;;
16634;SDS011;8431;52.458;9.998;2023-10-31T02:30:52;16.15;;;15.25;;
16634;SDS011;8431;52.458;9.998;2023-10-31T02:33:19;15.90;;;15.05;;
16634;SDS011;8431;52.458;9.998;2023-10-31T02:35:46;16.45;;;15.55;;
16634;SDS011;8431;52.458;9.998;2023-10-31T02:38:14;16.33;;;15.35;;
16634;SDS011;8431;52.458;9.998;2023-10-31T02:40:48;16.75;;;15.63;;
16634;SDS011;8431;52.458;9.998;2023-10-31T02:43:30;16.38;;;15.27;;
16634;SDS011;8431;52.458;9.998;2023-10-31T02:46:07;17.13;;;15.95;;
16634;SDS011;8431;52.458;9.998;2023-10-31T02:48:39;17.48;;;15.98;;
16634;SDS011;8431;52.458;9.998;2023-10-31T02:51:07;16.83;;;15.60;;
16634;SDS011;8431;52.458;9.998;2023-10-31T02:53:34;14.98;;;14.18;;
16634;SDS011;8431;52.458;9.998;2023-10-31T02:56:03;15.95;;;15.15;;
16634;SDS011;8431;52.458;9.998;2023-10-31T02:58:30;16.92;;;15.98;;
16634;SDS011;8431;52.458;9.998;2023-10-31T03:01:03;16.25;;;15.20;;
16634;SDS011;8431;52.458;9.998;2023-10-31T03:03:30;15.35;;;14.45;;
16634;SDS011;8431;52.458;9.998;2023-10-31T03:05:57;16.45;;;15.35;;
16634;SDS011;8431;52.458;9.998;2023-10-31T03:08:24;16.30;;;15.48;;
16634;SDS011;8431;52.458;9.998;2023-10-31T03:10:51;15.90;;;14.80;;
16634;SDS011;8431;52.458;9.998;2023-10-31T03:13:22;16.73;;;15.45;;
16634;SDS011;8431;52.458;9.998;2023-10-31T03:15:49;16.30;;;15.30;;
16634;SDS011;8431;52.458;9.998;2023-10-31T03:18:16;17.15;;;15.90;;
16634;SDS011;8431;52.458;9.998;2023-10-31T03:20:44;15.55;;;14.73;;
16634;SDS011;8431;52.458;9.998;2023-10-31T03:23:11;17.08;;;16.08;;
16634;SDS011;8431;52.458;9.998;2023-10-31T03:25:38;16.83;;;15.93;;
16634;SDS011;8431;52.458;9.998;2023-10-31T03:28:07;17.65;;;16.50;;
16634;SDS011;8431;52.458;9.998;2023-10-31T03:30:45;17.90;;;16.90;;
16634;SDS011;8431;52.458;9.998;2023-10-31T03:33:13;17.15;;;16.15;;
16634;SDS011;8431;52.458;9.998;2023-10-31T03:35:40;16.38;;;15.38;;
16634;SDS011;8431;52.458;9.998;2023-10-31T03:38:16;16.83;;;15.82;;
16634;SDS011;8431;52.458;9.998;2023-10-31T03:40:43;16.15;;;15.15;;
16634;SDS011;8431;52.458;9.998;2023-10-31T03:43:10;16.92;;;15.73;;
16634;SDS011;8431;52.458;9.998;2023-10-31T03:45:37;16.73;;;15.70;;
16634;SDS011;8431;52.458;9.998;2023-10-31T03:48:05;17.60;;;16.48;;
16634;SDS011;8431;52.458;9.998;2023-10-31T03:50:32;17.52;;;16.60;;
16634;SDS011;8431;52.458;9.998;2023-10-31T03:52:59;18.08;;;16.85;;
16634;SDS011;8431;52.458;9.998;2023-10-31T03:55:35;16.45;;;15.35;;
16634;SDS011;8431;52.458;9.998;2023-10-31T03:58:03;17.08;;;16.13;;
16634;SDS011;8431;52.458;9.998;2023-10-31T04:00:38;16.58;;;15.55;;
16634;SDS011;8431;52.458;9.998;2023-10-31T04:03:07;14.75;;;13.85;;
16634;SDS011;8431;52.458;9.998;2023-10-31T04:05:34;14.98;;;14.18;;
16634;SDS011;8431;52.458;9.998;2023-10-31T04:08:01;16.88;;;15.73;;
16634;SDS011;8431;52.458;9.998;2023-10-31T04:10:28;15.95;;;15.13;;
16634;SDS011;8431;52.458;9.998;2023-10-31T04:12:55;17.17;;;16.27;;
16634;SDS011;8431;52.458;9.998;2023-10-31T04:15:22;17.10;;;15.93;;
16634;SDS011;8431;52.458;9.998;2023-10-31T04:17:49;15.85;;;15.05;;
16634;SDS011;8431;52.458;9.998;2023-10-31T04:20:17;16.33;;;15.43;;
16634;SDS011;8431;52.458;9.998;2023-10-31T04:22:44;16.70;;;15.80;;
16634;SDS011;8431;52.458;9.998;2023-10-31T04:25:10;16.98;;;16.00;;
16634;SDS011;8431;52.458;9.998;2023-10-31T04:27:37;16.45;;;15.55;;
16634;SDS011;8431;52.458;9.998;2023-10-31T04:30:04;16.50;;;15.60;;
16634;SDS011;8431;52.458;9.998;2023-10-31T04:32:36;15.15;;;14.35;;
16634;SDS011;8431;52.458;9.998;2023-10-31T04:35:06;15.15;;;14.45;;
16634;SDS011;8431;52.458;9.998;2023-10-31T04:37:35;16.10;;;15.25;;
16634;SDS011;8431;52.458;9.998;2023-10-31T04:40:02;14.93;;;14.23;;
16634;SDS011;8431;52.458;9.998;2023-10-31T04:42:31;14.40;;;13.70;;
16634;SDS011;8431;52.458;9.998;2023-10-31T04:44:58;14.63;;;13.82;;
16634;SDS011;8431;52.458;9.998;2023-10-31T04:47:25;15.00;;;14.32;;
16634;SDS011;8431;52.458;9.998;2023-10-31T04:49:52;14.25;;;13.65;;
16634;SDS011;8431;52.458;9.998;2023-10-31T04:52:19;13.52;;;12.93;;
16634;SDS011;8431;52.458;9.998;2023-10-31T04:54:49;11.88;;;11.38;;
16634;SDS011;8431;52.458;9.998;2023-10-31T04:57:16;10.55;;;10.05;;
16634;SDS011;8431;52.458;9.998;2023-10-31T04:59:42;11.18;;;10.68;;
16634;SDS011;8431;52.458;9.998;2023-10-31T05:02:09;11.60;;;11.10;;
16634;SDS011;8431;52.458;9.998;2023-10-31T05:04:37;12.32;;;11.82;;
16634;SDS011;8431;52.458;9.998;2023-10-31T05:07:05;11.68;;;11.27;;
16634;SDS011;8431;52.458;9.998;2023-10-31T05:09:32;10.18;;;9.88;;
16634;SDS011;8431;52.458;9.998;2023-10-31T05:12:05;9.82;;;9.43;;
16634;SDS011;8431;52.458;9.998;2023-10-31T05:14:32;9.90;;;9.60;;
16634;SDS011;8431;52.458;9.998;2023-10-31T05:16:59;10.95;;;10.45;;
16634;SDS011;8431;52.458;9.998;2023-10-31T05:19:26;10.27;;;9.98;;
16634;SDS011;8431;52.458;9.998;2023-10-31T05:21:53;10.35;;;10.00;;
16634;SDS011;8431;52.458;9.998;2023-10-31T05:24:20;9.75;;;9.45;;
16634;SDS011;8431;52.458;9.998;2023-10-31T05:26:47;10.02;;;9.65;;
16634;SDS011;8431;52.458;9.998;2023-10-31T05:29:15;9.52;;;9.20;;
16634;SDS011;8431;52.458;9.998;2023-10-31T05:31:42;9.15;;;8.85;;
16634;SDS011;8431;52.458;9.998;2023-10-31T05:34:09;9.60;;;9.30;;
16634;SDS011;8431;52.458;9.998;2023-10-31T05:36:36;9.93;;;9.63;;
16634;SDS011;8431;52.458;9.998;2023-10-31T05:39:03;9.10;;;8.80;;
16634;SDS011;8431;52.458;9.998;2023-10-31T05:41:33;9.00;;;8.70;;
16634;SDS011;8431;52.458;9.998;2023-10-31T05:44:00;9.52;;;9.02;;
16634;SDS011;8431;52.458;9.998;2023-10-31T05:46:28;9.77;;;9.48;;
16634;SDS011;8431;52.458;9.998;2023-10-31T05:48:55;9.63;;;9.32;;
16634;SDS011;8431;52.458;9.998;2023-10-31T05:51:22;9.43;;;9.13;;
16634;SDS011;8431;52.458;9.998;2023-10-31T05:53:50;8.48;;;8.18;;
16634;SDS011;8431;52.458;9.998;2023-10-31T05:56:17;9.98;;;9.50;;
16634;SDS011;8431;52.458;9.998;2023-10-31T05:58:44;10.07;;;9.68;;
16634;SDS011;8431;52.458;9.998;2023-10-31T06:01:12;9.48;;;9.10;;
16634;SDS011;8431;52.458;9.998;2023-10-31T06:03:42;9.80;;;9.50;;
16634;SDS011;8431;52.458;9.998;2023-10-31T06:06:09;10.02;;;9.65;;
16634;SDS011;8431;52.458;9.998;2023-10-31T06:08:36;10.65;;;9.98;;
16634;SDS011;8431;52.458;9.998;2023-10-31T06:11:04;10.90;;;10.50;;
16634;SDS011;8431;52.458;9.998;2023-10-31T06:13:31;10.63;;;10.23;;
16634;SDS011;8431;52.458;9.998;2023-10-31T06:15:59;9.75;;;9.45;;
16634;SDS011;8431;52.458;9.998;2023-10-31T06:18:27;9.35;;;9.05;;
16634;SDS011;8431;52.458;9.998;2023-10-31T06:20:56;9.80;;;9.40;;
16634;SDS011;8431;52.458;9.998;2023-10-31T06:23:23;9.63;;;9.23;;
16634;SDS011;8431;52.458;9.998;2023-10-31T06:25:49;9.77;;;9.38;;
16634;SDS011;8431;52.458;9.998;2023-10-31T06:28:16;9.45;;;9.05;;
16634;SDS011;8431;52.458;9.998;2023-10-31T06:30:43;10.88;;;10.48;;
16634;SDS011;8431;52.458;9.998;2023-10-31T06:33:10;11.38;;;10.77;;
16634;SDS011;8431;52.458;9.998;2023-10-31T06:35:37;10.63;;;10.23;;
16634;SDS011;8431;52.458;9.998;2023-10-31T06:38:05;11.23;;;10.68;;
16634;SDS011;8431;52.458;9.998;2023-10-31T06:40:32;11.18;;;10.68;;
16634;SDS011;8431;52.458;9.998;2023-10-31T06:43:00;10.63;;;10.18;;
16634;SDS011;8431;52.458;9.998;2023-10-31T06:45:27;10.85;;;10.45;;
16634;SDS011;8431;52.458;9.998;2023-10-31T06:47:54;10.50;;;10.10;;
16634;SDS011;8431;52.458;9.998;2023-10-31T06:50:41;10.00;;;9.50;;
16634;SDS011;8431;52.458;9.998;2023-10-31T06:53:10;9.45;;;9.15;;
16634;SDS011;8431;52.458;9.998;2023-10-31T06:55:37;10.02;;;9.63;;
16634;SDS011;8431;52.458;9.998;2023-10-31T06:58:04;11.48;;;10.77;;
16634;SDS011;8431;52.458;9.998;2023-10-31T07:00:30;10.50;;;10.00;;
16634;SDS011;8431;52.458;9.998;2023-10-31T07:02:57;11.13;;;10.52;;
16634;SDS011;8431;52.458;9.998;2023-10-31T07:05:29;10.57;;;10.18;;
16634;SDS011;8431;52.458;9.998;2023-10-31T07:07:56;10.77;;;10.00;;
16634;SDS011;8431;52.458;9.998;2023-10-31T07:10:32;11.02;;;10.40;;
16634;SDS011;8431;52.458;9.998;2023-10-31T07:13:00;10.32;;;9.93;;
16634;SDS011;8431;52.458;9.998;2023-10-31T07:15:27;10.85;;;10.20;;
16634;SDS011;8431;52.458;9.998;2023-10-31T07:17:53;10.93;;;10.43;;
16634;SDS011;8431;52.458;9.998;2023-10-31T07:20:21;11.57;;;10.93;;
16634;SDS011;8431;52.458;9.998;2023-10-31T07:22:47;10.48;;;9.98;;
16634;SDS011;8431;52.458;9.998;2023-10-31T07:25:14;10.40;;;10.00;;
16634;SDS011;8431;52.458;9.998;2023-10-31T07:27:42;10.27;;;9.45;;
16634;SDS011;8431;52.458;9.998;2023-10-31T07:30:10;12.13;;;11.45;;
16634;SDS011;8431;52.458;9.998;2023-10-31T07:32:37;11.75;;;11.25;;
16634;SDS011;8431;52.458;9.998;2023-10-31T07:35:04;11.00;;;10.50;;
16634;SDS011;8431;52.458;9.998;2023-10-31T07:37:32;9.38;;;8.90;;
16634;SDS011;8431;52.458;9.998;2023-10-31T07:39:59;9.75;;;9.35;;
16634;SDS011;8431;52.458;9.998;2023-10-31T07:42:26;10.70;;;10.20;;
16634;SDS011;8431;52.458;9.998;2023-10-31T07:44:54;10.48;;;9.95;;
16634;SDS011;8431;52.458;9.998;2023-10-31T07:47:21;10.70;;;10.15;;
16634;SDS011;8431;52.458;9.998;2023-10-31T07:49:48;10.63;;;10.07;;
16634;SDS011;8431;52.458;9.998;2023-10-31T07:52:15;10.35;;;9.85;;
16634;SDS011;8431;52.458;9.998;2023-10-31T07:54:42;8.85;;;8.40;;
16634;SDS011;8431;52.458;9.998;2023-10-31T07:57:09;10.30;;;9.85;;
16634;SDS011;8431;52.458;9.998;2023-10-31T07:59:37;10.18;;;9.77;;
16634;SDS011;8431;52.458;9.998;2023-10-31T08:02:05;10.95;;;10.13;;
16634;SDS011;8431;52.458;9.998;2023-10-31T08:04:32;10.68;;;10.10;;
16634;SDS011;8431;52.458;9.998;2023-10-31T08:06:59;10.18;;;9.77;;
16634;SDS011;8431;52.458;9.998;2023-10-31T08:09:27;11.88;;;11.30;;
16634;SDS011;8431;52.458;9.998;2023-10-31T08:11:53;11.27;;;10.57;;
16634;SDS011;8431;52.458;9.998;2023-10-31T08:14:20;11.88;;;11.38;;
16634;SDS011;8431;52.458;9.998;2023-10-31T08:16:48;11.23;;;10.63;;
16634;SDS011;8431;52.458;9.998;2023-10-31T08:19:16;11.35;;;10.85;;
16634;SDS011;8431;52.458;9.998;2023-10-31T08:21:43;11.00;;;10.60;;
16634;SDS011;8431;52.458;9.998;2023-10-31T08:24:10;11.75;;;11.18;;
16634;SDS011;8431;52.458;9.998;2023-10-31T08:26:38;11.65;;;11.15;;
16634;SDS011;8431;52.458;9.998;2023-10-31T08:29:05;11.30;;;10.70;;
16634;SDS011;8431;52.458;9.998;2023-10-31T08:31:32;11.05;;;10.55;;
16634;SDS011;8431;52.458;9.998;2023-10-31T08:33:59;11.38;;;10.65;;
16634;SDS011;8431;52.458;9.998;2023-10-31T08:36:27;12.02;;;11.32;;
16634;SDS011;8431;52.458;9.998;2023-10-31T08:39:00;11.93;;;11.15;;
16634;SDS011;8431;52.458;9.998;2023-10-31T08:41:28;11.45;;;11.00;;
16634;SDS011;8431;52.458;9.998;2023-10-31T08:43:55;11.13;;;10.73;;
16634;SDS011;8431;52.458;9.998;2023-10-31T08:46:23;10.93;;;10.43;;
16634;SDS011;8431;52.458;9.998;2023-10-31T08:48:50;10.25;;;9.85;;
16634;SDS011;8431;52.458;9.998;2023-10-31T08:51:17;10.65;;;10.05;;
16634;SDS011;8431;52.458;9.998;2023-10-31T08:53:52;10.20;;;9.80;;
16634;SDS011;8431;52.458;9.998;2023-10-31T08:56:19;10.18;;;9.77;;
16634;SDS011;8431;52.458;9.998;2023-10-31T08:58:46;10.55;;;9.93;;
16634;SDS011;8431;52.458;9.998;2023-10-31T09:01:18;8.82;;;8.43;;
16634;SDS011;8431;52.458;9.998;2023-10-31T09:03:45;10.00;;;9.60;;
16634;SDS011;8431;52.458;9.998;2023-10-31T09:06:12;9.60;;;9.30;;
16634;SDS011;8431;52.458;9.998;2023-10-31T09:08:45;10.05;;;9.55;;
16634;SDS011;8431;52.458;9.998;2023-10-31T09:11:14;10.02;;;9.63;;
16634;SDS011;8431;52.458;9.998;2023-10-31T09:13:41;10.70;;;10.30;;
16634;SDS011;8431;52.458;9.998;2023-10-31T09:16:08;10.85;;;10.15;;
16634;SDS011;8431;52.458;9.998;2023-10-31T09:18:35;10.88;;;10.48;;
16634;SDS011;8431;52.458;9.998;2023-10-31T09:21:02;10.38;;;9.98;;
16634;SDS011;8431;52.458;9.998;2023-10-31T09:23:32;10.50;;;10.10;;
16634;SDS011;8431;52.458;9.998;2023-10-31T09:25:59;10.02;;;9.63;;
16634;SDS011;8431;52.458;9.998;2023-10-31T09:28:29;9.52;;;9.23;;
16634;SDS011;8431;52.458;9.998;2023-10-31T09:30:56;9.07;;;8.77;;
16634;SDS011;8431;52.458;9.998;2023-10-31T09:33:28;10.75;;;10.25;;
16634;SDS011;8431;52.458;9.998;2023-10-31T09:36:07;9.75;;;9.30;;
16634;SDS011;8431;52.458;9.998;2023-10-31T09:38:35;9.93;;;9.45;;
16634;SDS011;8431;52.458;9.998;2023-10-31T09:41:02;10.05;;;9.65;;
16634;SDS011;8431;52.458;9.998;2023-10-31T09:43:31;10.90;;;10.50;;
16634;SDS011;8431;52.458;9.998;2023-10-31T09:45:58;11.07;;;10.68;;
16634;SDS011;8431;52.458;9.998;2023-10-31T09:48:26;13.02;;;12.38;;
16634;SDS011;8431;52.458;9.998;2023-10-31T09:50:55;11.65;;;11.05;;
16634;SDS011;8431;52.458;9.998;2023-10-31T09:53:33;10.15;;;9.75;;
16634;SDS011;8431;52.458;9.998;2023-10-31T09:56:04;10.70;;;10.30;;
16634;SDS011;8431;52.458;9.998;2023-10-31T09:58:33;11.57;;;11.07;;
16634;SDS011;8431;52.458;9.998;2023-10-31T10:01:01;11.70;;;11.07;;
16634;SDS011;8431;52.458;9.998;2023-10-31T10:03:31;12.05;;;11.55;;
16634;SDS011;8431;52.458;9.998;2023-10-31T10:06:01;11.60;;;11.20;;
16634;SDS011;8431;52.458;9.998;2023-10-31T10:11:41;11.23;;;10.73;;
16634;SDS011;8431;52.458;9.998;2023-10-31T10:14:09;10.68;;;10.20;;
16634;SDS011;8431;52.458;9.998;2023-10-31T10:16:48;10.95;;;10.55;;
16634;SDS011;8431;52.458;9.998;2023-10-31T10:19:15;11.20;;;10.70;;
16634;SDS011;8431;52.458;9.998;2023-10-31T10:21:46;11.82;;;11.32;;
16634;SDS011;8431;52.458;9.998;2023-10-31T10:24:14;11.65;;;11.20;;
16634;SDS011;8431;52.458;9.998;2023-10-31T10:26:41;11.57;;;11.05;;
16634;SDS011;8431;52.458;9.998;2023-10-31T10:29:09;11.45;;;10.95;;
16634;SDS011;8431;52.458;9.998;2023-10-31T10:31:39;11.10;;;10.70;;
16634;SDS011;8431;52.458;9.998;2023-10-31T10:34:07;10.55;;;10.15;;
16634;SDS011;8431;52.458;9.998;2023-10-31T10:36:37;11.60;;;11.05;;
16634;SDS011;8431;52.458;9.998;2023-10-31T10:39:05;12.50;;;11.90;;
16634;SDS011;8431;52.458;9.998;2023-10-31T10:41:42;12.43;;;11.93;;
16634;SDS011;8431;52.458;9.998;2023-10-31T10:44:13;12.20;;;11.70;;
16634;SDS011;8431;52.458;9.998;2023-10-31T10:46:41;12.13;;;11.52;;
16634;SDS011;8431;52.458;9.998;2023-10-31T10:49:18;12.73;;;12.13;;
16634;SDS011;8431;52.458;9.998;2023-10-31T10:51:52;12.25;;;11.75;;
16634;SDS011;8431;52.458;9.998;2023-10-31T10:54:29;13.00;;;12.50;;
16634;SDS011;8431;52.458;9.998;2023-10-31T10:57:02;12.05;;;11.63;;
16634;SDS011;8431;52.458;9.998;2023-10-31T10:59:38;12.40;;;11.90;;
16634;SDS011;8431;52.458;9.998;2023-10-31T11:02:07;12.60;;;12.10;;
16634;SDS011;8431;52.458;9.998;2023-10-31T11:04:35;12.93;;;12.43;;
16634;SDS011;8431;52.458;9.998;2023-10-31T11:07:03;12.18;;;11.68;;
16634;SDS011;8431;52.458;9.998;2023-10-31T11:09:32;11.60;;;11.20;;
16634;SDS011;8431;52.458;9.998;2023-10-31T11:12:06;12.90;;;12.40;;
16634;SDS011;8431;52.458;9.998;2023-10-31T11:14:35;13.90;;;13.10;;
16634;SDS011;8431;52.458;9.998;2023-10-31T11:17:10;13.85;;;13.25;;
16634;SDS011;8431;52.458;9.998;2023-10-31T11:19:41;14.30;;;13.50;;
16634;SDS011;8431;52.458;9.998;2023-10-31T11:22:08;12.75;;;12.25;;
16634;SDS011;8431;52.458;9.998;2023-10-31T11:24:37;11.20;;;10.80;;
16634;SDS011;8431;52.458;9.998;2023-10-31T11:27:05;11.93;;;11.20;;
16634;SDS011;8431;52.458;9.998;2023-10-31T11:29:33;12.55;;;12.05;;
16634;SDS011;8431;52.458;9.998;2023-10-31T11:32:03;12.07;;;11.48;;
16634;SDS011;8431;52.458;9.998;2023-10-31T11:34:35;11.70;;;11.30;;
16634;SDS011;8431;52.458;9.998;2023-10-31T11:37:22;11.00;;;10.60;;
16634;SDS011;8431;52.458;9.998;2023-10-31T11:42:44;11.70;;;11.30;;
16634;SDS011;8431;52.458;9.998;2023-10-31T11:45:26;10.52;;;10.13;;
16634;SDS011;8431;52.458;9.998;2023-10-31T11:48:03;11.32;;;10.73;;
16634;SDS011;8431;52.458;9.998;2023-10-31T11:50:31;12.00;;;11.50;;
16634;SDS011;8431;52.458;9.998;2023-10-31T11:53:22;11.45;;;10.95;;
16634;SDS011;8431;52.458;9.998;2023-10-31T11:56:51;11.13;;;10.73;;
16634;SDS011;8431;52.458;9.998;2023-10-31T11:59:18;11.73;;;11.20;;
16634;SDS011;8431;52.458;9.998;2023-10-31T12:01:45;11.45;;;10.98;;
16634;SDS011;8431;52.458;9.998;2023-10-31T12:04:20;11.40;;;10.90;;
16634;SDS011;8431;52.458;9.998;2023-10-31T12:06:56;9.85;;;9.55;;
16634;SDS011;8431;52.458;9.998;2023-10-31T12:09:25;11.00;;;10.60;;
16634;SDS011;8431;52.458;9.998;2023-10-31T12:11:54;10.52;;;10.13;;
16634;SDS011;8431;52.458;9.998;2023-10-31T12:14:21;10.20;;;9.80;;
16634;SDS011;8431;52.458;9.998;2023-10-31T12:16:47;11.27;;;10.80;;
16634;SDS011;8431;52.458;9.998;2023-10-31T12:19:14;10.55;;;10.15;;
16634;SDS011;8431;52.458;9.998;2023-10-31T12:24:24;10.48;;;10.00;;
16634;SDS011;8431;52.458;9.998;2023-10-31T12:26:51;9.85;;;9.43;;
16634;SDS011;8431;52.458;9.998;2023-10-31T12:29:20;8.77;;;8.48;;
16634;SDS011;8431;52.458;9.998;2023-10-31T12:31:47;10.50;;;10.10;;
16634;SDS011;8431;52.458;9.998;2023-10-31T12:34:17;10.13;;;9.73;;
16634;SDS011;8431;52.458;9.998;2023-10-31T12:36:49;10.45;;;10.05;;
16634;SDS011;8431;52.458;9.998;2023-10-31T12:42:22;8.55;;;8.25;;
16634;SDS011;8431;52.458;9.998;2023-10-31T12:44:56;10.20;;;9.80;;
16634;SDS011;8431;52.458;9.998;2023-10-31T12:47:24;10.73;;;10.30;;
16634;SDS011;8431;52.458;9.998;2023-10-31T12:50:05;12.00;;;11.48;;
16634;SDS011;8431;52.458;9.998;2023-10-31T12:52:46;12.15;;;11.55;;
16634;SDS011;8431;52.458;9.998;2023-10-31T12:55:16;11.30;;;10.90;;
16634;SDS011;8431;52.458;9.998;2023-10-31T12:57:46;11.32;;;10.82;;
16634;SDS011;8431;52.458;9.998;2023-10-31T13:00:14;10.82;;;10.23;;
16634;SDS011;8431;52.458;9.998;2023-10-31T13:02:44;12.35;;;11.70;;
16634;SDS011;8431;52.458;9.998;2023-10-31T13:05:11;11.52;;;11.07;;
16634;SDS011;8431;52.458;9.998;2023-10-31T13:07:39;11.95;;;11.35;;
16634;SDS011;8431;52.458;9.998;2023-10-31T13:10:12;12.65;;;11.93;;
16634;SDS011;8431;52.458;9.998;2023-10-31T13:12:44;10.60;;;10.10;;
16634;SDS011;8431;52.458;9.998;2023-10-31T13:15:26;11.13;;;10.73;;
16634;SDS011;8431;52.458;9.998;2023-10-31T13:17:53;10.82;;;10.32;;
16634;SDS011;8431;52.458;9.998;2023-10-31T13:20:20;10.50;;;10.10;;
16634;SDS011;8431;52.458;9.998;2023-10-31T13:22:47;10.93;;;10.32;;
16634;SDS011;8431;52.458;9.998;2023-10-31T13:25:15;11.10;;;10.70;;
16634;SDS011;8431;52.458;9.998;2023-10-31T13:27:42;11.80;;;11.20;;
16634;SDS011;8431;52.458;9.998;2023-10-31T13:30:13;11.05;;;10.55;;
16634;SDS011;8431;52.458;9.998;2023-10-31T13:32:42;11.80;;;11.20;;
16634;SDS011;8431;52.458;9.998;2023-10-31T13:35:09;11.38;;;10.82;;
16634;SDS011;8431;52.458;9.998;2023-10-31T13:37:37;10.90;;;10.50;;
16634;SDS011;8431;52.458;9.998;2023-10-31T13:40:04;11.52;;;11.02;;
16634;SDS011;8431;52.458;9.998;2023-10-31T13:42:33;11.85;;;11.35;;
16634;SDS011;8431;52.458;9.998;2023-10-31T13:45:00;12.18;;;11.57;;
16634;SDS011;8431;52.458;9.998;2023-10-31T13:47:45;11.75;;;11.15;;
16634;SDS011;8431;52.458;9.998;2023-10-31T13:53:28;10.15;;;9.55;;
16634;SDS011;8431;52.458;9.998;2023-10-31T13:56:13;9.73;;;9.13;;
16634;SDS011;8431;52.458;9.998;2023-10-31T13:59:22;9.65;;;9.25;;
16634;SDS011;8431;52.458;9.998;2023-10-31T14:01:54;10.30;;;9.85;;
16634;SDS011;8431;52.458;9.998;2023-10-31T14:08:00;9.18;;;8.73;;
16634;SDS011;8431;52.458;9.998;2023-10-31T14:10:47;9.20;;;8.80;;
16634;SDS011;8431;52.458;9.998;2023-10-31T14:13:35;9.77;;;9.30;;
16634;SDS011;8431;52.458;9.998;2023-10-31T14:16:19;9.60;;;9.30;;
16634;SDS011;8431;52.458;9.998;2023-10-31T14:18:46;10.23;;;9.77;;
16634;SDS011;8431;52.458;9.998;2023-10-31T14:21:14;9.55;;;9.25;;
16634;SDS011;8431;52.458;9.998;2023-10-31T14:23:41;9.73;;;9.43;;
16634;SDS011;8431;52.458;9.998;2023-10-31T14:26:08;10.40;;;9.80;;
16634;SDS011;8431;52.458;9.998;2023-10-31T14:28:34;9.93;;;9.38;;
16634;SDS011;8431;52.458;9.998;2023-10-31T14:31:07;9.38;;;9.00;;
16634;SDS011;8431;52.458;9.998;2023-10-31T14:33:38;9.02;;;8.68;;
16634;SDS011;8431;52.458;9.998;2023-10-31T14:38:39;9.90;;;9.50;;
16634;SDS011;8431;52.458;9.998;2023-10-31T14:41:09;9.95;;;9.55;;
16634;SDS011;8431;52.458;9.998;2023-10-31T14:47:10;10.50;;;10.10;;
16634;SDS011;8431;52.458;9.998;2023-10-31T14:49:47;10.57;;;10.18;;
16634;SDS011;8431;52.458;9.998;2023-10-31T14:52:16;11.30;;;10.80;;
16634;SDS011;8431;52.458;9.998;2023-10-31T14:54:44;10.07;;;9.68;;
16634;SDS011;8431;52.458;9.998;2023-10-31T14:57:13;9.05;;;8.65;;
16634;SDS011;8431;52.458;9.998;2023-10-31T14:59:43;10.27;;;9.88;;
16634;SDS011;8431;52.458;9.998;2023-10-31T15:02:10;9.80;;;9.40;;
16634;SDS011;8431;52.458;9.998;2023-10-31T15:04:37;10.20;;;9.80;;
16634;SDS011;8431;52.458;9.998;2023-10-31T15:07:04;9.27;;;8.85;;
16634;SDS011;8431;52.458;9.998;2023-10-31T15:09:31;10.32;;;9.93;;
16634;SDS011;8431;52.458;9.998;2023-10-31T15:11:59;9.55;;;9.00;;
16634;SDS011;8431;52.458;9.998;2023-10-31T15:14:26;9.73;;;9.43;;
16634;SDS011;8431;52.458;9.998;2023-10-31T15:21:59;11.10;;;10.70;;
16634;SDS011;8431;52.458;9.998;2023-10-31T15:24:26;11.07;;;10.57;;